Time;durP1;ratioP1;P1;durP2;ratioP2;P2;SDS_P1;SDS_P2;PMS_P1;PMS_P2;Temp;Humidity;BMP_temperature;BMP_pressure;BME280_temperature;BME280_humidity;BME280_pressure;Samples;Min_cycle;Max_cycle;Signal;HPM_P1;HPM_P2
2023/01/05 00:01:32;;;;;;;43.77;14.60;;;;;;;;;;5097843;28;20674;-70
2023/01/05 00:03:58;;;;;;;31.37;9.87;;;;;;;;;;5115628;28;20193;-70
2023/01/05 00:06:24;;;;;;;38.40;13.77;;;;;;;;;;5097546;28;20176;-70
2023/01/05 00:08:49;;;;;;;27.47;8.20;;;;;;;;;;5115632;28;20197;-70
2023/01/05 00:22:29;;;;;;;32.57;7.37;;;;;;;;;;5115680;28;20182;-70
2023/01/05 00:24:59;;;;;;;26.40;7.07;;;;;;;;;;5096922;28;20233;-70
2023/01/05 00:27:26;;;;;;;27.67;7.23;;;;;;;;;;5115169;28;20187;-70
2023/01/05 00:29:52;;;;;;;29.07;7.20;;;;;;;;;;5096851;28;20188;-70
2023/01/05 00:32:18;;;;;;;24.10;7.27;;;;;;;;;;5115221;28;20199;-69
2023/01/05 00:34:44;;;;;;;29.60;6.97;;;;;;;;;;5114950;28;20200;-72
2023/01/05 00:37:10;;;;;;;31.17;7.40;;;;;;;;;;5115609;28;20532;-70
2023/01/05 00:39:36;;;;;;;31.93;7.27;;;;;;;;;;5114833;28;20252;-70
2023/01/05 00:42:02;;;;;;;24.00;6.77;;;;;;;;;;5114912;28;20172;-70
2023/01/05 00:44:28;;;;;;;21.93;5.20;;;;;;;;;;5096619;28;20249;-69
2023/01/05 00:46:54;;;;;;;31.67;6.60;;;;;;;;;;5114933;28;20169;-70
2023/01/05 00:49:20;;;;;;;21.60;6.27;;;;;;;;;;5115455;28;20550;-69
2023/01/05 00:51:46;;;;;;;33.43;7.37;;;;;;;;;;5096499;28;20181;-70
2023/01/05 00:54:12;;;;;;;17.73;5.90;;;;;;;;;;5114853;28;20192;-70
2023/01/05 00:56:38;;;;;;;31.40;7.27;;;;;;;;;;5096458;28;20180;-69
2023/01/05 00:59:04;;;;;;;23.93;6.67;;;;;;;;;;5114737;28;20202;-70
2023/01/05 01:01:30;;;;;;;27.90;6.43;;;;;;;;;;5114733;28;20173;-70
2023/01/05 01:03:56;;;;;;;31.97;6.90;;;;;;;;;;5096235;28;20188;-69
2023/01/05 01:06:23;;;;;;;28.93;7.23;;;;;;;;;;5114831;28;20200;-70
2023/01/05 01:08:49;;;;;;;29.57;6.20;;;;;;;;;;5114555;28;20169;-70
2023/01/05 01:11:15;;;;;;;29.40;5.90;;;;;;;;;;5114360;28;20541;-69
2023/01/05 01:13:42;;;;;;;31.50;6.73;;;;;;;;;;5114297;28;20732;-70
2023/01/05 01:16:09;;;;;;;30.30;6.90;;;;;;;;;;5114260;28;20173;-71
2023/01/05 01:18:35;;;;;;;24.60;6.93;;;;;;;;;;5114242;28;20176;-70
2023/01/05 01:21:01;;;;;;;32.47;6.00;;;;;;;;;;5114553;28;20184;-70
2023/01/05 01:23:27;;;;;;;26.37;6.07;;;;;;;;;;5095967;28;20189;-70
2023/01/05 01:25:53;;;;;;;28.60;6.33;;;;;;;;;;5114144;28;20211;-70
2023/01/05 01:28:19;;;;;;;31.27;6.27;;;;;;;;;;5114335;28;20173;-70
2023/01/05 01:30:45;;;;;;;28.83;6.67;;;;;;;;;;5114221;28;20181;-70
2023/01/05 01:33:11;;;;;;;27.07;6.57;;;;;;;;;;5114125;28;20177;-72
2023/01/05 01:35:37;;;;;;;25.03;6.37;;;;;;;;;;5113986;28;20173;-71
2023/01/05 01:38:03;;;;;;;20.80;6.67;;;;;;;;;;5114182;28;20172;-70
2023/01/05 01:40:29;;;;;;;23.90;7.13;;;;;;;;;;5113879;28;20219;-70
2023/01/05 01:42:55;;;;;;;27.63;6.73;;;;;;;;;;5114054;28;20173;-70
2023/01/05 01:45:22;;;;;;;28.93;7.67;;;;;;;;;;5096413;28;20657;-71
2023/01/05 01:47:54;;;;;;;29.67;7.27;;;;;;;;;;5095606;28;20271;-70
2023/01/05 01:50:22;;;;;;;28.00;6.77;;;;;;;;;;5095585;28;20177;-68
2023/01/05 01:52:50;;;;;;;29.47;6.33;;;;;;;;;;5095567;28;20182;-70
2023/01/05 01:55:16;;;;;;;26.83;6.40;;;;;;;;;;5113632;28;20192;-71
2023/01/05 01:57:43;;;;;;;19.57;5.97;;;;;;;;;;5095555;28;20603;-70
2023/01/05 02:00:10;;;;;;;26.57;6.50;;;;;;;;;;5095577;28;20212;-71
2023/01/05 02:02:36;;;;;;;29.73;6.80;;;;;;;;;;5095586;28;20185;-71
2023/01/05 02:05:04;;;;;;;28.30;6.80;;;;;;;;;;5095499;28;20612;-71
2023/01/05 02:07:32;;;;;;;27.87;6.77;;;;;;;;;;5113591;28;20164;-71
2023/01/05 02:09:58;;;;;;;26.43;6.27;;;;;;;;;;5113897;28;20518;-70
2023/01/05 02:12:38;;;;;;;29.80;6.60;;;;;;;;;;5113885;28;20176;-70
2023/01/05 02:15:13;;;;;;;30.93;6.60;;;;;;;;;;5113694;28;20725;-70
2023/01/05 02:17:46;;;;;;;26.07;7.03;;;;;;;;;;5113653;28;20204;-71
2023/01/05 02:20:15;;;;;;;24.87;6.97;;;;;;;;;;5095666;28;20200;-71
2023/01/05 02:22:59;;;;;;;25.73;6.87;;;;;;;;;;5095370;28;20789;-71
2023/01/05 02:25:28;;;;;;;24.73;5.93;;;;;;;;;;5095634;28;20204;-71
2023/01/05 02:27:57;;;;;;;30.27;7.83;;;;;;;;;;5113518;28;20180;-70
2023/01/05 02:30:32;;;;;;;26.20;6.57;;;;;;;;;;5095288;28;20186;-70
2023/01/05 02:35:52;;;;;;;27.10;6.77;;;;;;;;;;5071765;28;20210;-69
2023/01/05 02:38:33;;;;;;;26.33;5.70;;;;;;;;;;5074915;28;20174;-69
2023/01/05 02:41:03;;;;;;;23.87;6.60;;;;;;;;;;5075238;28;20212;-69
2023/01/05 02:43:29;;;;;;;28.93;6.73;;;;;;;;;;5075210;28;20202;-69
2023/01/05 02:45:55;;;;;;;27.97;6.53;;;;;;;;;;5076468;28;20174;-69
2023/01/05 02:48:22;;;;;;;31.90;6.87;;;;;;;;;;5058585;28;20264;-69
2023/01/05 02:50:56;;;;;;;29.13;7.67;;;;;;;;;;5058501;28;20558;-69
2023/01/05 02:53:26;;;;;;;23.07;6.33;;;;;;;;;;5076302;28;20200;-69
2023/01/05 02:55:55;;;;;;;25.37;6.93;;;;;;;;;;5076345;28;20178;-69
2023/01/05 02:58:24;;;;;;;34.67;8.07;;;;;;;;;;5076236;28;20173;-68
2023/01/05 03:00:55;;;;;;;23.83;6.37;;;;;;;;;;5076418;28;20205;-69
2023/01/05 03:03:25;;;;;;;35.07;7.87;;;;;;;;;;5058436;28;20229;-69
2023/01/05 03:05:54;;;;;;;32.00;6.70;;;;;;;;;;5058471;28;20178;-70
2023/01/05 03:08:23;;;;;;;29.07;7.60;;;;;;;;;;5076316;28;20592;-69
2023/01/05 03:14:20;;;;;;;32.73;8.03;;;;;;;;;;5038020;28;20236;-69
2023/01/05 03:16:47;;;;;;;29.40;6.83;;;;;;;;;;5057894;28;20243;-69
2023/01/05 03:35:55;;;;;;;26.40;7.90;;;;;;;;;;5076144;28;20687;-69
2023/01/05 03:38:29;;;;;;;28.83;7.33;;;;;;;;;;5075470;28;20654;-69
2023/01/05 03:40:57;;;;;;;30.37;7.07;;;;;;;;;;5075622;28;20246;-69
2023/01/05 03:43:24;;;;;;;23.43;6.90;;;;;;;;;;5075726;28;20198;-68
2023/01/05 03:45:51;;;;;;;34.87;7.73;;;;;;;;;;5075513;28;20647;-69
2023/01/05 03:48:17;;;;;;;34.07;7.40;;;;;;;;;;5057014;28;20173;-69
2023/01/05 03:50:43;;;;;;;27.93;7.50;;;;;;;;;;5057176;28;20634;-71
2023/01/05 03:53:09;;;;;;;29.17;8.03;;;;;;;;;;5075100;28;20231;-68
2023/01/05 03:55:35;;;;;;;30.67;6.87;;;;;;;;;;5075273;28;20651;-69
2023/01/05 03:58:01;;;;;;;28.40;6.47;;;;;;;;;;5075114;28;20185;-69
2023/01/05 04:00:28;;;;;;;23.60;6.13;;;;;;;;;;5074975;28;20209;-68
2023/01/05 04:02:54;;;;;;;29.97;6.80;;;;;;;;;;5075179;28;20166;-69
2023/01/05 04:05:20;;;;;;;28.43;6.93;;;;;;;;;;5074837;28;20200;-69
2023/01/05 04:07:46;;;;;;;30.57;7.50;;;;;;;;;;5056894;28;20209;-68
2023/01/05 04:10:12;;;;;;;26.17;7.27;;;;;;;;;;5056835;28;20184;-69
2023/01/05 04:12:38;;;;;;;26.17;6.80;;;;;;;;;;5074796;28;20185;-68
2023/01/05 04:15:04;;;;;;;34.17;7.80;;;;;;;;;;5056698;28;20194;-69
2023/01/05 04:17:31;;;;;;;26.37;7.17;;;;;;;;;;5074935;28;20257;-69
2023/01/05 04:19:57;;;;;;;33.13;7.33;;;;;;;;;;5056910;28;20209;-68
2023/01/05 04:22:23;;;;;;;24.40;7.50;;;;;;;;;;5056694;28;20552;-68
2023/01/05 04:24:49;;;;;;;25.97;7.87;;;;;;;;;;5056634;28;20197;-68
2023/01/05 04:27:15;;;;;;;27.33;7.63;;;;;;;;;;5074641;28;20227;-68
2023/01/05 04:29:40;;;;;;;28.73;7.63;;;;;;;;;;5074738;28;20185;-69
2023/01/05 04:32:06;;;;;;;33.63;7.13;;;;;;;;;;5074492;28;20280;-68
2023/01/05 04:34:32;;;;;;;33.63;8.27;;;;;;;;;;5056570;28;20224;-67
2023/01/05 04:36:58;;;;;;;29.93;7.53;;;;;;;;;;5056409;28;20203;-68
2023/01/05 04:39:24;;;;;;;36.50;8.13;;;;;;;;;;5074343;28;20569;-68
2023/01/05 04:41:50;;;;;;;26.00;7.43;;;;;;;;;;5074757;28;20181;-68
2023/01/05 04:44:16;;;;;;;24.40;7.13;;;;;;;;;;5056307;28;20200;-68
2023/01/05 04:46:42;;;;;;;33.57;7.00;;;;;;;;;;5074044;28;20599;-68
2023/01/05 04:49:09;;;;;;;28.00;7.03;;;;;;;;;;5056191;28;20224;-68
2023/01/05 04:51:35;;;;;;;34.37;7.10;;;;;;;;;;5074334;28;20200;-67
2023/01/05 04:54:01;;;;;;;37.87;7.33;;;;;;;;;;5073875;28;20197;-68
2023/01/05 04:56:27;;;;;;;32.43;8.07;;;;;;;;;;5073918;28;20185;-68
2023/01/05 04:58:53;;;;;;;27.73;7.77;;;;;;;;;;5074031;28;20185;-68
2023/01/05 05:01:19;;;;;;;33.57;7.53;;;;;;;;;;5072968;28;20185;-67
2023/01/05 05:03:45;;;;;;;26.07;6.57;;;;;;;;;;5074073;28;20200;-68
2023/01/05 05:06:11;;;;;;;29.10;7.93;;;;;;;;;;5073770;28;20177;-68
2023/01/05 05:08:37;;;;;;;31.40;7.40;;;;;;;;;;5055826;28;20626;-68
2023/01/05 05:11:03;;;;;;;34.63;7.80;;;;;;;;;;5073563;28;20181;-68
2023/01/05 05:13:30;;;;;;;31.13;6.30;;;;;;;;;;5055655;28;20247;-67
2023/01/05 05:15:56;;;;;;;34.10;7.47;;;;;;;;;;5055629;28;20219;-68
2023/01/05 05:18:23;;;;;;;33.10;7.53;;;;;;;;;;5074145;28;20181;-68
2023/01/05 05:20:50;;;;;;;34.97;8.13;;;;;;;;;;5055670;28;20559;-69
2023/01/05 05:23:16;;;;;;;29.50;6.40;;;;;;;;;;5073446;28;20174;-68
2023/01/05 05:25:42;;;;;;;27.93;7.07;;;;;;;;;;5055529;28;20216;-68
2023/01/05 05:28:08;;;;;;;34.07;7.40;;;;;;;;;;5073755;28;20178;-70
2023/01/05 05:30:34;;;;;;;30.73;6.90;;;;;;;;;;5073630;28;20181;-68
2023/01/05 05:33:00;;;;;;;34.90;7.87;;;;;;;;;;5055498;28;20199;-68
2023/01/05 05:35:26;;;;;;;27.37;7.13;;;;;;;;;;5073228;28;20221;-68
2023/01/05 05:37:52;;;;;;;37.67;8.00;;;;;;;;;;5073401;28;20227;-68
2023/01/05 05:40:18;;;;;;;27.70;7.23;;;;;;;;;;5073599;28;20198;-68
2023/01/05 05:42:44;;;;;;;30.50;6.83;;;;;;;;;;5073235;28;20188;-68
2023/01/05 05:45:10;;;;;;;34.77;8.03;;;;;;;;;;5073164;28;20228;-68
2023/01/05 05:47:36;;;;;;;29.83;7.27;;;;;;;;;;5055499;28;20178;-68
2023/01/05 05:50:02;;;;;;;29.00;7.33;;;;;;;;;;5074422;28;20178;-68
2023/01/05 05:52:28;;;;;;;31.03;7.73;;;;;;;;;;5059150;28;20181;-67
2023/01/05 05:54:54;;;;;;;35.27;8.00;;;;;;;;;;5057538;28;20209;-68
2023/01/05 05:57:20;;;;;;;30.10;7.13;;;;;;;;;;5057206;28;20218;-68
2023/01/05 05:59:45;;;;;;;31.60;7.07;;;;;;;;;;5075132;28;20255;-68
2023/01/05 06:02:11;;;;;;;28.00;7.37;;;;;;;;;;5073857;28;20182;-68
2023/01/05 06:04:37;;;;;;;36.07;8.13;;;;;;;;;;5073763;28;20610;-68
2023/01/05 06:07:03;;;;;;;40.93;8.03;;;;;;;;;;5073444;28;20573;-68
2023/01/05 06:09:29;;;;;;;31.63;7.73;;;;;;;;;;5073410;28;20650;-68
2023/01/05 06:11:55;;;;;;;35.53;7.93;;;;;;;;;;5056511;28;20566;-67
2023/01/05 06:14:21;;;;;;;30.77;7.77;;;;;;;;;;5077286;28;20217;-68
2023/01/05 06:16:47;;;;;;;35.33;8.30;;;;;;;;;;5059119;28;20658;-68
2023/01/05 06:19:13;;;;;;;41.70;8.20;;;;;;;;;;5077401;28;20243;-68
2023/01/05 06:21:39;;;;;;;33.30;8.10;;;;;;;;;;5077510;28;20176;-68
2023/01/05 06:24:05;;;;;;;36.40;8.57;;;;;;;;;;5076934;28;20665;-68
2023/01/05 06:26:31;;;;;;;35.00;7.90;;;;;;;;;;5059147;28;20185;-68
2023/01/05 06:28:57;;;;;;;38.33;8.07;;;;;;;;;;5077183;28;20182;-68
2023/01/05 06:31:23;;;;;;;40.43;8.90;;;;;;;;;;5077569;28;20252;-68
2023/01/05 06:33:49;;;;;;;41.00;8.53;;;;;;;;;;5076799;28;20221;-68
2023/01/05 06:36:15;;;;;;;42.33;8.50;;;;;;;;;;5059080;28;20176;-68
2023/01/05 06:38:41;;;;;;;41.80;8.90;;;;;;;;;;5079109;28;20182;-68
2023/01/05 06:41:07;;;;;;;41.53;8.40;;;;;;;;;;5082876;28;20193;-68
2023/01/05 06:43:33;;;;;;;42.60;9.33;;;;;;;;;;5082965;28;20216;-68
2023/01/05 06:45:59;;;;;;;34.93;8.57;;;;;;;;;;5083844;28;20188;-68
2023/01/05 06:48:25;;;;;;;44.63;8.80;;;;;;;;;;5082680;28;20542;-68
2023/01/05 06:50:51;;;;;;;39.97;8.93;;;;;;;;;;5065070;28;20178;-68
2023/01/05 06:53:17;;;;;;;42.47;10.13;;;;;;;;;;5083534;28;20178;-68
2023/01/05 06:55:44;;;;;;;41.53;9.40;;;;;;;;;;5083301;28;20178;-68
2023/01/05 06:58:09;;;;;;;37.00;8.73;;;;;;;;;;5065722;28;20196;-68
2023/01/05 07:00:36;;;;;;;52.37;11.37;;;;;;;;;;5065477;28;20197;-68
2023/01/05 07:03:01;;;;;;;53.50;11.77;;;;;;;;;;5083120;28;20683;-68
2023/01/05 07:05:27;;;;;;;42.57;10.43;;;;;;;;;;5064888;28;20185;-68
2023/01/05 07:07:54;;;;;;;53.13;10.50;;;;;;;;;;5083153;28;20657;-68
2023/01/05 07:10:19;;;;;;;42.23;9.23;;;;;;;;;;5065105;28;20201;-68
2023/01/05 07:12:45;;;;;;;42.67;10.27;;;;;;;;;;5082872;28;20585;-68
2023/01/05 07:15:11;;;;;;;41.77;9.73;;;;;;;;;;5066226;28;20204;-68
2023/01/05 07:17:37;;;;;;;42.60;9.67;;;;;;;;;;5067480;28;20201;-68
2023/01/05 07:20:04;;;;;;;45.77;9.93;;;;;;;;;;5067379;28;20227;-68
2023/01/05 07:22:30;;;;;;;45.67;9.63;;;;;;;;;;5083768;28;20659;-68
2023/01/05 07:24:57;;;;;;;41.00;9.20;;;;;;;;;;5067344;28;20205;-68
2023/01/05 07:27:23;;;;;;;43.23;9.90;;;;;;;;;;5096322;28;20215;-68
2023/01/05 07:29:49;;;;;;;44.87;9.23;;;;;;;;;;5098313;28;20158;-68
2023/01/05 07:32:15;;;;;;;44.27;10.70;;;;;;;;;;5079924;28;20597;-68
2023/01/05 07:34:41;;;;;;;49.10;9.90;;;;;;;;;;5097979;28;20221;-68
2023/01/05 07:37:07;;;;;;;42.03;9.87;;;;;;;;;;5097338;28;20213;-68
2023/01/05 07:39:33;;;;;;;33.73;9.07;;;;;;;;;;5077781;28;20216;-68
2023/01/05 07:41:59;;;;;;;50.40;10.23;;;;;;;;;;5076905;28;20185;-68
2023/01/05 07:44:25;;;;;;;56.87;11.13;;;;;;;;;;5095668;28;20225;-68
2023/01/05 07:46:52;;;;;;;45.43;9.47;;;;;;;;;;5076263;28;20204;-68
2023/01/05 07:49:18;;;;;;;52.40;10.90;;;;;;;;;;5094850;28;20184;-67
2023/01/05 07:51:44;;;;;;;53.47;10.80;;;;;;;;;;5093978;28;20182;-68
2023/01/05 07:54:10;;;;;;;46.17;10.83;;;;;;;;;;5077672;28;20228;-68
2023/01/05 07:56:36;;;;;;;44.00;9.33;;;;;;;;;;5077573;28;20212;-67
2023/01/05 07:59:02;;;;;;;38.77;9.00;;;;;;;;;;5094139;28;20170;-68
2023/01/05 08:01:27;;;;;;;42.67;10.40;;;;;;;;;;5095682;28;20174;-68
2023/01/05 08:03:53;;;;;;;43.63;10.20;;;;;;;;;;5094942;28;20189;-68
2023/01/05 08:06:20;;;;;;;41.97;9.17;;;;;;;;;;5090776;28;20177;-68
2023/01/05 08:08:46;;;;;;;37.60;10.13;;;;;;;;;;5092582;28;20160;-68
2023/01/05 08:11:14;;;;;;;50.40;11.30;;;;;;;;;;5094413;28;20186;-68
2023/01/05 08:13:58;;;;;;;48.67;11.77;;;;;;;;;;5096289;28;20193;-68
2023/01/05 08:16:24;;;;;;;42.80;12.87;;;;;;;;;;5077589;28;20653;-68
2023/01/05 08:18:50;;;;;;;51.30;12.30;;;;;;;;;;5079347;28;20185;-68
2023/01/05 08:21:16;;;;;;;42.83;12.03;;;;;;;;;;5079015;28;20182;-68
2023/01/05 08:23:44;;;;;;;44.13;11.00;;;;;;;;;;5093282;28;20197;-68
2023/01/05 08:26:12;;;;;;;45.23;10.93;;;;;;;;;;5093101;28;20184;-68
2023/01/05 08:28:38;;;;;;;48.40;13.87;;;;;;;;;;5093932;28;20217;-68
2023/01/05 08:31:05;;;;;;;56.00;16.70;;;;;;;;;;5075083;28;20717;-68
2023/01/05 08:33:31;;;;;;;48.73;15.37;;;;;;;;;;5094344;28;20213;-68
2023/01/05 08:35:57;;;;;;;56.27;13.00;;;;;;;;;;5093427;28;20162;-68
2023/01/05 08:38:23;;;;;;;57.77;11.80;;;;;;;;;;5077173;28;20180;-68
2023/01/05 08:40:49;;;;;;;47.63;12.23;;;;;;;;;;5093039;28;20204;-68
2023/01/05 08:43:15;;;;;;;43.10;12.50;;;;;;;;;;5084611;28;20190;-68
2023/01/05 08:45:41;;;;;;;48.23;11.03;;;;;;;;;;5074573;28;20696;-68
2023/01/05 08:48:09;;;;;;;47.27;11.17;;;;;;;;;;5074277;28;20551;-68
2023/01/05 08:50:37;;;;;;;46.97;11.40;;;;;;;;;;5081880;28;20170;-68
2023/01/05 08:53:03;;;;;;;43.70;9.00;;;;;;;;;;5065982;28;20181;-68
2023/01/05 08:55:29;;;;;;;49.93;12.03;;;;;;;;;;5056417;28;20181;-68
2023/01/05 08:57:56;;;;;;;45.00;10.73;;;;;;;;;;5074602;28;20170;-68
2023/01/05 09:00:22;;;;;;;51.77;11.07;;;;;;;;;;5057305;28;20204;-68
2023/01/05 09:02:48;;;;;;;51.97;11.17;;;;;;;;;;5075304;28;20201;-68
2023/01/05 09:05:14;;;;;;;40.07;11.07;;;;;;;;;;5074548;28;20197;-68
2023/01/05 09:07:40;;;;;;;46.70;11.63;;;;;;;;;;5056050;28;20185;-67
2023/01/05 09:10:07;;;;;;;50.03;11.53;;;;;;;;;;5056036;28;20189;-68
2023/01/05 09:12:36;;;;;;;49.27;10.33;;;;;;;;;;5074217;28;20177;-68
2023/01/05 09:15:03;;;;;;;42.73;9.40;;;;;;;;;;5055809;28;20204;-68
2023/01/05 09:17:29;;;;;;;48.63;10.87;;;;;;;;;;5073853;28;20178;-67
2023/01/05 09:19:55;;;;;;;50.43;11.03;;;;;;;;;;5056109;28;20197;-68
2023/01/05 09:22:21;;;;;;;45.90;11.07;;;;;;;;;;5073841;28;20181;-67
2023/01/05 09:24:47;;;;;;;51.37;10.30;;;;;;;;;;5089513;22;20233;-69
2023/01/05 09:27:13;;;;;;;46.30;10.80;;;;;;;;;;5074330;28;20174;-72
2023/01/05 09:29:39;;;;;;;44.27;9.60;;;;;;;;;;5073784;28;20178;-71
2023/01/05 09:32:06;;;;;;;40.03;9.77;;;;;;;;;;5072402;28;20189;-72
2023/01/05 09:34:32;;;;;;;43.70;10.77;;;;;;;;;;5072058;28;20206;-71
2023/01/05 09:36:58;;;;;;;42.13;10.37;;;;;;;;;;5074115;28;20174;-71
2023/01/05 09:39:24;;;;;;;43.80;9.47;;;;;;;;;;5073500;28;20202;-71
2023/01/05 09:41:52;;;;;;;47.43;10.17;;;;;;;;;;5073862;28;20169;-71
2023/01/05 09:44:37;;;;;;;35.17;9.03;;;;;;;;;;5073462;28;20201;-71
2023/01/05 09:47:04;;;;;;;42.63;11.00;;;;;;;;;;5073061;28;20637;-71
2023/01/05 09:49:31;;;;;;;46.37;9.90;;;;;;;;;;5073451;28;20243;-70
2023/01/05 09:52:01;;;;;;;35.50;9.47;;;;;;;;;;5073406;28;20182;-72
2023/01/05 09:54:28;;;;;;;39.70;9.77;;;;;;;;;;5055439;28;20201;-71
2023/01/05 09:56:54;;;;;;;41.30;9.17;;;;;;;;;;5055717;28;20178;-71
2023/01/05 09:59:29;;;;;;;44.37;9.33;;;;;;;;;;5073549;28;20198;-72
2023/01/05 10:01:58;;;;;;;44.87;9.97;;;;;;;;;;5055389;28;20182;-71
2023/01/05 10:04:24;;;;;;;45.10;8.27;;;;;;;;;;5073430;28;20292;-72
2023/01/05 10:06:52;;;;;;;33.80;8.87;;;;;;;;;;5055446;28;20174;-71
2023/01/05 10:09:23;;;;;;;28.07;7.50;;;;;;;;;;5073280;28;20604;-72
2023/01/05 10:14:45;;;;;;;39.03;8.80;;;;;;;;;;5073843;28;20216;-71
2023/01/05 10:17:15;;;;;;;40.17;9.70;;;;;;;;;;5073395;28;20239;-71
2023/01/05 10:19:41;;;;;;;42.67;9.07;;;;;;;;;;5073303;28;20221;-70
2023/01/05 10:22:17;;;;;;;46.07;11.13;;;;;;;;;;5073104;28;20201;-70
2023/01/05 10:24:53;;;;;;;38.30;9.23;;;;;;;;;;5073312;28;20209;-70
2023/01/05 10:27:45;;;;;;;35.73;8.93;;;;;;;;;;5073397;28;20170;-70
2023/01/05 10:30:20;;;;;;;36.53;7.97;;;;;;;;;;5042738;28;20198;-70
2023/01/05 10:32:53;;;;;;;39.50;10.23;;;;;;;;;;5073231;28;20181;-70
2023/01/05 10:35:19;;;;;;;41.00;8.27;;;;;;;;;;5073405;28;20611;-69
2023/01/05 10:37:57;;;;;;;36.47;8.27;;;;;;;;;;5073298;28;20259;-69
2023/01/05 10:40:38;;;;;;;34.90;9.27;;;;;;;;;;5055070;28;20229;-69
2023/01/05 10:43:19;;;;;;;38.60;8.93;;;;;;;;;;5073342;28;20166;-70
2023/01/05 10:45:45;;;;;;;43.10;10.23;;;;;;;;;;5073298;28;20654;-70
2023/01/05 10:48:16;;;;;;;37.27;9.00;;;;;;;;;;5073737;28;20174;-69
2023/01/05 10:50:43;;;;;;;34.00;8.00;;;;;;;;;;5055109;28;20211;-70
2023/01/05 10:53:14;;;;;;;40.20;8.77;;;;;;;;;;5055285;28;20239;-70
2023/01/05 10:55:44;;;;;;;40.37;8.03;;;;;;;;;;5073134;28;20201;-71
2023/01/05 10:58:22;;;;;;;31.53;8.20;;;;;;;;;;5072868;28;20264;-71
2023/01/05 11:00:48;;;;;;;38.50;8.00;;;;;;;;;;5058442;28;20205;-70
2023/01/05 11:03:16;;;;;;;39.20;7.83;;;;;;;;;;5058518;28;20178;-71
2023/01/05 11:05:44;;;;;;;32.87;7.73;;;;;;;;;;5058304;28;20221;-71
2023/01/05 11:08:17;;;;;;;36.70;8.10;;;;;;;;;;5058691;28;20177;-70
2023/01/05 11:11:03;;;;;;;35.27;8.67;;;;;;;;;;5076130;28;20646;-70
2023/01/05 11:13:31;;;;;;;34.00;7.37;;;;;;;;;;5058298;28;20177;-69
2023/01/05 11:16:01;;;;;;;36.60;7.53;;;;;;;;;;5058093;28;20276;-70
2023/01/05 11:18:40;;;;;;;38.30;8.67;;;;;;;;;;5057911;28;20315;-70
2023/01/05 11:21:12;;;;;;;37.67;7.70;;;;;;;;;;5058083;28;20208;-71
2023/01/05 11:23:40;;;;;;;31.90;8.20;;;;;;;;;;5075716;28;20171;-71
2023/01/05 11:26:19;;;;;;;31.13;7.10;;;;;;;;;;5076006;28;20186;-70
2023/01/05 11:28:57;;;;;;;29.73;7.80;;;;;;;;;;5076122;28;20166;-71
2023/01/05 11:31:26;;;;;;;36.77;7.73;;;;;;;;;;5075737;28;20219;-70
2023/01/05 11:33:57;;;;;;;32.53;7.53;;;;;;;;;;5076016;28;20324;-68
2023/01/05 11:36:23;;;;;;;36.47;8.10;;;;;;;;;;5057834;28;20273;-70
2023/01/05 11:38:54;;;;;;;37.87;8.27;;;;;;;;;;5075980;28;20173;-70
2023/01/05 11:41:21;;;;;;;27.93;8.53;;;;;;;;;;5057557;28;20347;-70
2023/01/05 11:43:47;;;;;;;31.87;7.43;;;;;;;;;;5057660;28;20202;-69
2023/01/05 11:46:14;;;;;;;30.27;7.93;;;;;;;;;;5075698;28;20178;-69
2023/01/05 11:48:47;;;;;;;32.43;7.90;;;;;;;;;;5075619;28;20172;-70
2023/01/05 11:51:32;;;;;;;31.20;7.13;;;;;;;;;;5075423;28;20201;-70
2023/01/05 11:53:58;;;;;;;25.70;6.93;;;;;;;;;;5075730;28;20657;-70
2023/01/05 11:56:24;;;;;;;31.77;6.83;;;;;;;;;;5075801;28;20182;-70
2023/01/05 11:58:54;;;;;;;35.03;7.00;;;;;;;;;;5075692;28;20178;-70
2023/01/05 12:01:39;;;;;;;29.57;8.43;;;;;;;;;;5075243;28;20258;-70
2023/01/05 12:04:23;;;;;;;31.30;7.77;;;;;;;;;;5075115;28;20197;-70
2023/01/05 12:06:58;;;;;;;24.00;7.20;;;;;;;;;;5075056;28;20181;-70
2023/01/05 12:09:32;;;;;;;26.13;6.70;;;;;;;;;;5075003;28;20181;-70
2023/01/05 12:12:01;;;;;;;33.83;7.50;;;;;;;;;;5075021;28;20173;-70
2023/01/05 12:14:36;;;;;;;34.90;7.07;;;;;;;;;;5075040;28;20669;-69
2023/01/05 12:17:07;;;;;;;24.70;6.17;;;;;;;;;;5074877;28;20687;-70
2023/01/05 12:19:39;;;;;;;26.43;6.33;;;;;;;;;;5057059;28;20255;-69
2023/01/05 12:22:23;;;;;;;29.80;7.07;;;;;;;;;;5056895;28;20177;-70
2023/01/05 12:24:49;;;;;;;32.27;7.50;;;;;;;;;;5074753;28;20213;-69
2023/01/05 12:27:22;;;;;;;27.60;6.90;;;;;;;;;;5075034;28;20227;-70
2023/01/05 12:30:00;;;;;;;28.30;6.77;;;;;;;;;;5057248;28;20656;-70
2023/01/05 12:32:35;;;;;;;27.13;7.10;;;;;;;;;;5056710;28;20189;-70
2023/01/05 12:35:01;;;;;;;35.87;8.27;;;;;;;;;;5074631;28;20730;-70
2023/01/05 12:37:52;;;;;;;35.00;7.10;;;;;;;;;;5056635;28;20186;-70
2023/01/05 12:40:27;;;;;;;29.90;6.60;;;;;;;;;;5074335;28;20663;-69
2023/01/05 12:43:02;;;;;;;32.33;7.93;;;;;;;;;;5074275;28;20533;-70
2023/01/05 12:45:34;;;;;;;38.03;8.00;;;;;;;;;;5074392;28;20676;-70
2023/01/05 12:48:06;;;;;;;33.13;7.83;;;;;;;;;;5056405;28;20697;-70
2023/01/05 12:50:34;;;;;;;33.97;8.40;;;;;;;;;;5074531;28;20205;-70
2023/01/05 12:53:19;;;;;;;37.00;8.23;;;;;;;;;;5056214;28;20188;-70
2023/01/05 12:55:47;;;;;;;35.30;7.20;;;;;;;;;;5073918;28;20201;-69
2023/01/05 12:58:16;;;;;;;28.40;8.67;;;;;;;;;;5073919;28;20603;-70
2023/01/05 13:00:45;;;;;;;27.63;7.90;;;;;;;;;;5074129;28;20205;-69
2023/01/05 13:03:14;;;;;;;30.90;8.13;;;;;;;;;;5073865;28;20257;-69
2023/01/05 13:05:48;;;;;;;33.10;9.10;;;;;;;;;;5055878;28;20581;-70
2023/01/05 13:08:16;;;;;;;29.67;8.07;;;;;;;;;;5056044;28;20262;-70
2023/01/05 13:10:45;;;;;;;31.73;8.43;;;;;;;;;;5073757;28;20178;-68
2023/01/05 13:13:17;;;;;;;29.97;8.87;;;;;;;;;;5055907;28;20189;-70
2023/01/05 13:15:52;;;;;;;34.23;9.40;;;;;;;;;;5055918;28;20206;-70
2023/01/05 13:18:18;;;;;;;32.13;8.27;;;;;;;;;;5055831;28;20625;-70
2023/01/05 13:20:53;;;;;;;28.03;9.60;;;;;;;;;;5073430;28;20550;-69
2023/01/05 13:23:20;;;;;;;30.60;8.50;;;;;;;;;;5055983;28;20173;-70
2023/01/05 13:25:53;;;;;;;31.37;7.67;;;;;;;;;;5073653;28;20244;-70
2023/01/05 13:28:20;;;;;;;31.73;8.23;;;;;;;;;;5055770;28;20307;-70
2023/01/05 13:31:10;;;;;;;35.90;8.27;;;;;;;;;;5073849;28;20173;-70
2023/01/05 13:33:55;;;;;;;31.83;8.40;;;;;;;;;;5037332;28;20208;-70
2023/01/05 13:36:30;;;;;;;27.67;7.87;;;;;;;;;;5074100;28;20208;-70
2023/01/05 13:39:17;;;;;;;38.07;8.87;;;;;;;;;;5073586;28;20248;-70
2023/01/05 13:41:44;;;;;;;26.23;8.50;;;;;;;;;;5055831;28;20212;-70
2023/01/05 13:44:13;;;;;;;30.23;7.57;;;;;;;;;;5055537;28;20292;-70
2023/01/05 13:46:54;;;;;;;25.57;7.87;;;;;;;;;;5055398;28;20637;-70
2023/01/05 13:49:39;;;;;;;25.80;7.03;;;;;;;;;;5055523;28;20186;-70
2023/01/05 13:52:43;;;;;;;32.23;8.03;;;;;;;;;;5073436;28;20661;-69
2023/01/05 13:55:12;;;;;;;20.47;7.57;;;;;;;;;;4991854;28;20294;-68
2023/01/05 13:57:40;;;;;;;28.87;7.37;;;;;;;;;;4976086;28;20191;-70
2023/01/05 14:00:09;;;;;;;29.23;8.67;;;;;;;;;;5033347;28;20359;-70
2023/01/05 14:02:40;;;;;;;24.90;7.70;;;;;;;;;;5076424;28;20173;-70
2023/01/05 14:05:14;;;;;;;28.23;7.67;;;;;;;;;;5077325;28;20201;-69
2023/01/05 14:07:40;;;;;;;26.10;7.83;;;;;;;;;;5076899;28;20165;-71
2023/01/05 14:10:18;;;;;;;33.27;7.30;;;;;;;;;;5060687;28;20250;-70
2023/01/05 14:12:45;;;;;;;21.27;7.67;;;;;;;;;;5077177;28;20170;-69
2023/01/05 14:15:30;;;;;;;34.47;9.67;;;;;;;;;;5057494;28;20677;-69
2023/01/05 14:17:57;;;;;;;30.43;8.53;;;;;;;;;;5073221;28;20260;-69
2023/01/05 14:20:32;;;;;;;34.80;9.43;;;;;;;;;;5072997;28;20220;-69
2023/01/05 14:22:58;;;;;;;26.87;8.83;;;;;;;;;;5073102;28;20227;-69
2023/01/05 14:25:39;;;;;;;33.03;9.33;;;;;;;;;;5072687;28;20237;-69
2023/01/05 14:28:17;;;;;;;31.03;9.13;;;;;;;;;;5055062;28;20181;-69
2023/01/05 14:30:43;;;;;;;26.30;8.80;;;;;;;;;;5073084;28;20642;-70
2023/01/05 14:33:09;;;;;;;38.67;10.33;;;;;;;;;;5074700;28;20683;-69
2023/01/05 14:35:36;;;;;;;23.63;9.40;;;;;;;;;;5058664;28;20238;-70
2023/01/05 14:38:04;;;;;;;28.77;8.70;;;;;;;;;;5076989;28;20226;-69
2023/01/05 14:40:35;;;;;;;27.50;8.77;;;;;;;;;;5076515;28;20244;-69
2023/01/05 14:43:03;;;;;;;32.20;10.27;;;;;;;;;;5058713;28;20202;-68
2023/01/05 14:45:35;;;;;;;24.87;9.47;;;;;;;;;;5076455;28;20194;-69
2023/01/05 14:48:02;;;;;;;35.93;9.90;;;;;;;;;;5058808;28;20174;-69
2023/01/05 14:50:31;;;;;;;34.30;9.53;;;;;;;;;;5058494;28;20212;-69
2023/01/05 14:53:09;;;;;;;30.27;9.07;;;;;;;;;;5076733;28;20252;-69
2023/01/05 14:55:36;;;;;;;24.03;9.97;;;;;;;;;;5058278;28;20201;-68
2023/01/05 14:58:22;;;;;;;28.43;9.37;;;;;;;;;;5058362;28;20236;-68
2023/01/05 15:00:51;;;;;;;28.40;9.77;;;;;;;;;;5035587;28;20590;-68
2023/01/05 15:03:20;;;;;;;31.37;9.97;;;;;;;;;;5076574;28;20231;-69
2023/01/05 15:05:58;;;;;;;24.20;10.37;;;;;;;;;;5058064;28;20681;-69
2023/01/05 15:08:39;;;;;;;29.23;9.27;;;;;;;;;;5076076;28;20185;-69
2023/01/05 15:11:22;;;;;;;21.57;8.07;;;;;;;;;;5076067;28;20584;-69
2023/01/05 15:16:52;;;;;;;28.73;8.73;;;;;;;;;;5076260;28;20271;-70
2023/01/05 15:19:26;;;;;;;33.03;9.07;;;;;;;;;;5057905;28;20173;-70